Time;durP1;ratioP1;P1;durP2;ratioP2;P2;SDS_P1;SDS_P2;PMS_P1;PMS_P2;Temp;Humidity;BMP_temperature;BMP_pressure;BME280_temperature;BME280_humidity;BME280_pressure;Samples;Min_cycle;Max_cycle;Signal;HPM_P1;HPM_P2
2023/09/10 08:24:24;;;;;;;;;18.50;16.50;;;;;;;;5049678;27;1398051;-68
2023/09/10 08:26:51;;;;;;;;;16.00;14.50;;;;;;;;5066540;28;8802;-68
2023/09/10 08:30:35;;;;;;;;;19.25;19.00;;;;;;;;5103946;27;13456;-70
2023/09/10 08:33:01;;;;;;;;;14.33;14.33;;;;;;;;5087235;28;9852;-71
2023/09/10 08:35:28;;;;;;;;;16.33;16.00;;;;;;;;5105508;28;8908;-71
2023/09/10 08:37:54;;;;;;;;;16.33;15.00;;;;;;;;5105799;28;8796;-71
2023/09/10 08:40:19;;;;;;;;;13.33;13.33;;;;;;;;5105231;28;8987;-71
2023/09/10 08:42:53;;;;;;;;;11.33;11.33;;;;;;;;5106607;28;8808;-71
2023/09/10 08:45:18;;;;;;;;;14.25;14.25;;;;;;;;5106727;28;9568;-70
2023/09/10 08:47:44;;;;;;;;;18.33;15.00;;;;;;;;5106755;28;8796;-71
2023/09/10 08:50:11;;;;;;;;;13.25;13.25;;;;;;;;5106441;28;8811;-75
2023/09/10 08:52:38;;;;;;;;;17.00;15.50;;;;;;;;5106222;28;8884;-73
2023/09/10 08:55:04;;;;;;;;;14.25;14.25;;;;;;;;5106239;28;8775;-72
2023/09/10 08:57:31;;;;;;;;;16.00;14.33;;;;;;;;5106468;28;8888;-72
2023/09/10 08:59:56;;;;;;;;;13.50;13.25;;;;;;;;5106272;28;8849;-72
2023/09/10 09:02:21;;;;;;;;;15.00;15.00;;;;;;;;5106361;28;9515;-72
2023/09/10 09:04:47;;;;;;;;;16.00;15.00;;;;;;;;5106271;28;8792;-72
2023/09/10 09:07:13;;;;;;;;;15.67;14.00;;;;;;;;5106301;28;8835;-72
2023/09/10 09:09:41;;;;;;;;;13.67;13.67;;;;;;;;5104057;28;8816;-72
2023/09/10 09:12:11;;;;;;;;;13.25;13.25;;;;;;;;5106246;28;8807;-73
2023/09/10 09:14:40;;;;;;;;;13.00;13.00;;;;;;;;5106129;28;8795;-71
2023/09/10 09:19:45;;;;;;;;;11.25;11.00;;;;;;;;5104081;28;9612;-70
2023/09/10 09:22:11;;;;;;;;;14.20;13.40;;;;;;;;5106113;28;8812;-71
2023/09/10 09:24:37;;;;;;;;;12.50;12.50;;;;;;;;5097638;27;8853;-70
2023/09/10 09:27:03;;;;;;;;;13.00;13.00;;;;;;;;5125805;27;11494;-69
2023/09/10 09:29:29;;;;;;;;;12.00;12.00;;;;;;;;5126125;27;8836;-70
2023/09/10 09:31:55;;;;;;;;;11.50;11.50;;;;;;;;5107677;27;8821;-70
2023/09/10 09:34:29;;;;;;;;;19.50;18.00;;;;;;;;5107783;27;8802;-70
2023/09/10 09:36:54;;;;;;;;;13.00;10.00;;;;;;;;5126069;27;8825;-70
2023/09/10 09:39:20;;;;;;;;;10.75;10.75;;;;;;;;5125975;27;8798;-70
2023/09/10 09:41:51;;;;;;;;;13.25;11.25;;;;;;;;5113241;28;8810;-71
2023/09/10 09:44:20;;;;;;;;;12.00;12.00;;;;;;;;5111967;28;8939;-70
2023/09/10 09:46:47;;;;;;;;;10.40;10.40;;;;;;;;5112336;28;8833;-71
2023/09/10 09:49:12;;;;;;;;;12.00;12.00;;;;;;;;5111983;28;8822;-72
2023/09/10 09:51:39;;;;;;;;;12.75;12.00;;;;;;;;5094097;28;8783;-68
2023/09/10 09:54:06;;;;;;;;;11.80;11.60;;;;;;;;5093725;28;11576;-71
2023/09/10 09:56:37;;;;;;;;;12.00;11.20;;;;;;;;5112076;28;8783;-70
2023/09/10 09:59:06;;;;;;;;;13.80;13.20;;;;;;;;5111915;28;8794;-69
2023/09/10 10:01:33;;;;;;;;;12.80;12.80;;;;;;;;5093163;28;9661;-70
2023/09/10 10:03:59;;;;;;;;;16.60;16.00;;;;;;;;5092943;28;8833;-70
2023/09/10 10:06:27;;;;;;;;;10.50;10.50;;;;;;;;5111877;28;8783;-70
2023/09/10 10:08:52;;;;;;;;;12.00;11.80;;;;;;;;5111608;28;8830;-70
2023/09/10 10:11:31;;;;;;;;;10.50;10.50;;;;;;;;5111439;28;8763;-70
2023/09/10 10:13:57;;;;;;;;;11.80;11.80;;;;;;;;5111732;28;8798;-71
2023/09/10 10:16:24;;;;;;;;;13.20;13.20;;;;;;;;5111555;28;8806;-71
2023/09/10 10:18:49;;;;;;;;;15.00;14.00;;;;;;;;5102640;22;9736;-70
2023/09/10 10:21:15;;;;;;;;;14.75;14.50;;;;;;;;5070597;28;8804;-72
2023/09/10 10:23:41;;;;;;;;;18.75;18.50;;;;;;;;5073466;28;8877;-73
2023/09/10 10:26:06;;;;;;;;;18.60;16.40;;;;;;;;5091382;28;9656;-71
2023/09/10 10:28:33;;;;;;;;;19.00;17.33;;;;;;;;5091243;28;8941;-72
2023/09/10 10:31:02;;;;;;;;;16.20;15.60;;;;;;;;5091047;28;8813;-75
2023/09/10 10:33:28;;;;;;;;;20.00;19.75;;;;;;;;5075171;28;8980;-71
2023/09/10 10:35:59;;;;;;;;;12.20;12.20;;;;;;;;5070063;28;8815;-73
2023/09/10 10:38:29;;;;;;;;;17.25;16.25;;;;;;;;5070524;28;8799;-72
2023/09/10 10:40:55;;;;;;;;;20.75;20.75;;;;;;;;5069693;28;8797;-74
2023/09/10 10:43:25;;;;;;;;;12.33;12.00;;;;;;;;5070597;28;9047;-75
2023/09/10 10:45:52;;;;;;;;;39.50;34.50;;;;;;;;5048772;28;8874;-71
2023/09/10 10:48:24;;;;;;;;;30.50;29.00;;;;;;;;5052172;28;8800;-72
2023/09/10 10:50:51;;;;;;;;;11.00;11.00;;;;;;;;5070167;28;8800;-71
2023/09/10 10:53:20;;;;;;;;;14.00;13.00;;;;;;;;5069700;28;8800;-71
2023/09/10 10:55:47;;;;;;;;;13.00;12.75;;;;;;;;5080533;28;9590;-72
2023/09/10 10:58:13;;;;;;;;;14.75;14.25;;;;;;;;5051640;28;8812;-71
2023/09/10 11:00:38;;;;;;;;;13.33;13.33;;;;;;;;5051676;28;8827;-73
2023/09/10 11:03:08;;;;;;;;;13.33;12.67;;;;;;;;5069901;28;8823;-68
2023/09/10 11:06:04;;;;;;;;;12.00;12.00;;;;;;;;5069534;28;8792;-72
2023/09/10 11:08:36;;;;;;;;;11.75;11.75;;;;;;;;5062741;28;8811;-74
2023/09/10 11:11:06;;;;;;;;;24.75;23.50;;;;;;;;5069457;28;8812;-74
2023/09/10 11:13:32;;;;;;;;;13.50;13.50;;;;;;;;5069368;28;8824;-74
2023/09/10 11:16:03;;;;;;;;;11.00;11.00;;;;;;;;5069259;28;8884;-71
2023/09/10 11:18:35;;;;;;;;;10.25;10.25;;;;;;;;5084659;22;9661;-76
2023/09/10 11:21:01;;;;;;;;;15.75;13.25;;;;;;;;5067909;28;8820;-70
2023/09/10 11:23:27;;;;;;;;;11.50;11.00;;;;;;;;5069577;28;9546;-69
2023/09/10 11:25:52;;;;;;;;;25.33;20.67;;;;;;;;5070656;28;8826;-72
2023/09/10 11:28:37;;;;;;;;;13.67;12.00;;;;;;;;5089083;28;9840;-69
2023/09/10 11:31:03;;;;;;;;;11.25;11.00;;;;;;;;5089210;28;8770;-68
2023/09/10 11:33:30;;;;;;;;;18.33;15.67;;;;;;;;5089258;28;8920;-70
2023/09/10 11:35:58;;;;;;;;;15.75;14.00;;;;;;;;5089428;28;8798;-72
2023/09/10 11:38:27;;;;;;;;;12.50;12.00;;;;;;;;5070929;28;9568;-71
2023/09/10 11:40:53;;;;;;;;;16.00;16.00;;;;;;;;5089147;28;8905;-71
2023/09/10 11:43:18;;;;;;;;;17.33;17.33;;;;;;;;5089539;28;8978;-70
2023/09/10 11:45:44;;;;;;;;;14.00;13.67;;;;;;;;5069884;28;8934;-69
2023/09/10 11:48:09;;;;;;;;;13.00;12.67;;;;;;;;5089117;28;8832;-69
2023/09/10 11:50:34;;;;;;;;;13.00;13.00;;;;;;;;5088448;28;8809;-69
2023/09/10 11:52:59;;;;;;;;;13.67;13.00;;;;;;;;5088721;28;8805;-70
2023/09/10 11:55:25;;;;;;;;;23.33;23.33;;;;;;;;5070575;28;8848;-71
2023/09/10 11:57:51;;;;;;;;;13.33;12.33;;;;;;;;5089049;28;8843;-69
2023/09/10 12:00:16;;;;;;;;;23.33;23.33;;;;;;;;5088531;28;8810;-70
2023/09/10 12:02:42;;;;;;;;;13.67;12.67;;;;;;;;5089107;28;8802;-69
2023/09/10 12:05:08;;;;;;;;;25.00;24.67;;;;;;;;5088894;28;8786;-70
2023/09/10 12:07:33;;;;;;;;;14.00;14.00;;;;;;;;5088999;28;8782;-71
2023/09/10 12:09:59;;;;;;;;;24.33;23.67;;;;;;;;5088686;28;9619;-69
2023/09/10 12:12:27;;;;;;;;;12.00;11.00;;;;;;;;5088595;28;8916;-70
2023/09/10 12:14:53;;;;;;;;;11.00;10.25;;;;;;;;5070414;28;9579;-69
2023/09/10 12:17:19;;;;;;;;;15.00;14.00;;;;;;;;5089068;28;8977;-69
2023/09/10 12:19:45;;;;;;;;;14.67;14.67;;;;;;;;5088792;28;8826;-70
2023/09/10 12:22:14;;;;;;;;;11.50;11.50;;;;;;;;5068399;28;9608;-69
2023/09/10 12:24:40;;;;;;;;;10.75;10.25;;;;;;;;5061173;28;8960;-71
2023/09/10 12:27:05;;;;;;;;;11.00;11.00;;;;;;;;5088639;28;8975;-71
2023/09/10 12:29:30;;;;;;;;;15.67;15.67;;;;;;;;5088516;28;8797;-70
2023/09/10 12:31:57;;;;;;;;;21.00;21.00;;;;;;;;5088360;28;8924;-69
2023/09/10 12:34:22;;;;;;;;;12.00;11.00;;;;;;;;5070634;28;8845;-69
2023/09/10 12:36:49;;;;;;;;;21.33;19.33;;;;;;;;5088550;28;8786;-66
2023/09/10 12:39:21;;;;;;;;;18.75;18.75;;;;;;;;5088198;28;8801;-66
2023/09/10 12:41:51;;;;;;;;;14.00;13.50;;;;;;;;5088158;28;8794;-66
2023/09/10 12:44:17;;;;;;;;;10.75;9.50;;;;;;;;5088279;28;8812;-66
2023/09/10 12:46:42;;;;;;;;;22.67;22.67;;;;;;;;5088476;28;8953;-65
2023/09/10 12:49:08;;;;;;;;;12.00;12.00;;;;;;;;5087702;28;8918;-66
2023/09/10 12:51:33;;;;;;;;;25.67;23.33;;;;;;;;5069905;28;8818;-68
2023/09/10 12:53:58;;;;;;;;;11.00;10.67;;;;;;;;5088385;28;8810;-69
2023/09/10 12:56:24;;;;;;;;;16.00;14.00;;;;;;;;5088110;28;8830;-68
2023/09/10 12:58:49;;;;;;;;;20.00;20.00;;;;;;;;5088557;28;8878;-68
2023/09/10 13:01:15;;;;;;;;;12.00;12.00;;;;;;;;5070153;28;8972;-67
2023/09/10 13:03:40;;;;;;;;;15.00;15.00;;;;;;;;5088611;28;8810;-67
2023/09/10 13:06:06;;;;;;;;;11.00;11.00;;;;;;;;5088383;28;8812;-66
2023/09/10 13:08:31;;;;;;;;;20.33;18.33;;;;;;;;5087943;28;8810;-68
2023/09/10 13:11:02;;;;;;;;;23.33;23.33;;;;;;;;5088144;28;8940;-68
2023/09/10 13:13:28;;;;;;;;;12.75;12.75;;;;;;;;5088751;28;8876;-68
2023/09/10 13:15:53;;;;;;;;;14.00;14.00;;;;;;;;5076913;28;8828;-68
2023/09/10 13:18:19;;;;;;;;;13.00;13.00;;;;;;;;5040990;28;8830;-69
2023/09/10 13:20:44;;;;;;;;;16.33;13.00;;;;;;;;5071709;28;9731;-68
2023/09/10 13:23:09;;;;;;;;;14.00;14.00;;;;;;;;5072183;28;8838;-67
2023/09/10 13:25:35;;;;;;;;;13.00;12.00;;;;;;;;5071520;28;9550;-68
2023/09/10 13:28:00;;;;;;;;;14.67;12.67;;;;;;;;5053687;28;8824;-68
2023/09/10 13:30:25;;;;;;;;;15.67;13.67;;;;;;;;5070422;28;8931;-68
2023/09/10 13:32:51;;;;;;;;;13.00;13.00;;;;;;;;5071297;28;8823;-68
2023/09/10 13:35:16;;;;;;;;;14.00;12.00;;;;;;;;5071640;28;8907;-68
2023/09/10 13:37:59;;;;;;;;;16.00;16.00;;;;;;;;5053640;28;8816;-69
2023/09/10 13:40:25;;;;;;;;;13.00;13.00;;;;;;;;5071419;28;8808;-72
2023/09/10 13:42:50;;;;;;;;;14.67;14.67;;;;;;;;5053824;28;8808;-67
2023/09/10 13:45:18;;;;;;;;;12.00;12.00;;;;;;;;5071561;28;8784;-70
2023/09/10 13:47:43;;;;;;;;;16.25;15.50;;;;;;;;5071633;28;8800;-70
2023/09/10 13:50:11;;;;;;;;;15.00;14.00;;;;;;;;5074028;28;8925;-70
2023/09/10 13:52:36;;;;;;;;;12.00;12.00;;;;;;;;5092395;28;8790;-73
2023/09/10 13:55:02;;;;;;;;;10.67;8.00;;;;;;;;5083182;28;8857;-70
2023/09/10 13:57:28;;;;;;;;;13.50;13.25;;;;;;;;5071366;28;9073;-69
2023/09/10 13:59:53;;;;;;;;;11.00;11.00;;;;;;;;5071091;28;9073;-69
2023/09/10 14:02:18;;;;;;;;;13.33;13.33;;;;;;;;5071434;28;8897;-69
2023/09/10 14:04:44;;;;;;;;;13.00;12.00;;;;;;;;5071442;28;8792;-70
2023/09/10 14:07:09;;;;;;;;;13.33;12.33;;;;;;;;5053349;28;8830;-69
2023/09/10 14:09:37;;;;;;;;;12.00;12.00;;;;;;;;5071012;28;9613;-69
2023/09/10 14:12:02;;;;;;;;;10.00;10.00;;;;;;;;5069555;28;8788;-69
2023/09/10 14:14:27;;;;;;;;;13.00;13.00;;;;;;;;5064320;28;8871;-69
2023/09/10 14:16:53;;;;;;;;;11.67;11.67;;;;;;;;5050837;28;8823;-69
2023/09/10 14:19:18;;;;;;;;;15.00;13.00;;;;;;;;5050919;28;8818;-70
2023/09/10 14:21:43;;;;;;;;;11.33;11.33;;;;;;;;5051181;28;8832;-68
2023/09/10 14:24:09;;;;;;;;;14.33;14.33;;;;;;;;5063877;28;8770;-68
2023/09/10 14:26:34;;;;;;;;;14.00;14.00;;;;;;;;5091117;28;8786;-68
2023/09/10 14:28:59;;;;;;;;;13.33;12.00;;;;;;;;5090613;28;8983;-69
2023/09/10 14:31:24;;;;;;;;;12.00;11.67;;;;;;;;5090997;28;8805;-69
2023/09/10 14:33:50;;;;;;;;;12.67;12.67;;;;;;;;5091024;28;8810;-68
2023/09/10 14:36:21;;;;;;;;;12.00;12.00;;;;;;;;5090598;28;8786;-68
2023/09/10 14:38:47;;;;;;;;;12.00;12.00;;;;;;;;5090656;28;8833;-68
2023/09/10 14:41:12;;;;;;;;;14.00;14.00;;;;;;;;5090717;28;8999;-68
2023/09/10 14:43:37;;;;;;;;;11.67;11.67;;;;;;;;5090860;28;8774;-68
2023/09/10 14:46:03;;;;;;;;;12.00;12.00;;;;;;;;5090917;28;8834;-68
2023/09/10 14:48:28;;;;;;;;;11.33;11.00;;;;;;;;5072612;28;8798;-70
2023/09/10 14:50:53;;;;;;;;;11.33;11.33;;;;;;;;5090949;28;8825;-69
2023/09/10 14:53:18;;;;;;;;;13.00;11.33;;;;;;;;5090525;28;8841;-68
2023/09/10 14:55:44;;;;;;;;;16.33;15.67;;;;;;;;5071511;28;8971;-70
2023/09/10 14:58:09;;;;;;;;;13.33;13.33;;;;;;;;5087742;28;8826;-68
2023/09/10 15:00:34;;;;;;;;;14.67;13.67;;;;;;;;5089980;28;8833;-68
2023/09/10 15:03:00;;;;;;;;;11.67;11.67;;;;;;;;5090497;28;8813;-67
2023/09/10 15:05:25;;;;;;;;;13.00;13.00;;;;;;;;5072274;28;8801;-67
2023/09/10 15:07:50;;;;;;;;;10.00;9.00;;;;;;;;5090475;28;8823;-67
2023/09/10 15:10:16;;;;;;;;;14.67;13.33;;;;;;;;5089985;28;8806;-65
2023/09/10 15:12:41;;;;;;;;;13.33;13.33;;;;;;;;5086129;28;8924;-68
2023/09/10 15:15:07;;;;;;;;;12.00;12.00;;;;;;;;5069890;28;8788;-68
2023/09/10 15:17:32;;;;;;;;;14.00;13.00;;;;;;;;5069552;28;8792;-67
2023/09/10 15:19:58;;;;;;;;;13.00;12.33;;;;;;;;5069859;28;8842;-68
2023/09/10 15:22:23;;;;;;;;;13.33;13.00;;;;;;;;5070177;28;8796;-68
2023/09/10 15:24:48;;;;;;;;;12.33;12.00;;;;;;;;5063679;28;8856;-67
2023/09/10 15:27:13;;;;;;;;;13.00;13.00;;;;;;;;5089705;28;8878;-66
2023/09/10 15:29:39;;;;;;;;;15.00;14.67;;;;;;;;5089348;28;8895;-67
2023/09/10 15:32:04;;;;;;;;;12.33;12.33;;;;;;;;5089397;28;8955;-68
